createdAt,value
2023-02-17T00:02:36.066Z,61.70
2023-02-17T00:05:40.721Z,61.70
2023-02-17T00:08:43.676Z,61.50
2023-02-17T00:11:46.498Z,62.00
2023-02-17T00:14:50.651Z,62.30
2023-02-17T00:17:53.382Z,62.00
2023-02-17T00:20:56.143Z,62.50
2023-02-17T00:24:00.023Z,62.10
2023-02-17T00:27:02.794Z,62.10
2023-02-17T00:30:08.992Z,62.90
2023-02-17T00:33:11.793Z,62.80
2023-02-17T00:36:17.697Z,63.10
2023-02-17T00:39:20.493Z,65.10
2023-02-17T00:42:23.235Z,63.60
2023-02-17T00:45:27.332Z,63.60
2023-02-17T00:48:30.291Z,64.00
2023-02-17T00:51:33.049Z,65.40
2023-02-17T00:54:35.785Z,64.50
2023-02-17T00:57:38.555Z,63.90
2023-02-17T01:00:42.642Z,64.00
2023-02-17T01:03:45.377Z,63.40
2023-02-17T01:06:48.143Z,63.40
2023-02-17T01:09:50.917Z,64.10
2023-02-17T01:12:53.652Z,63.60
2023-02-17T01:15:58.719Z,63.90
2023-02-17T01:19:01.559Z,63.70
2023-02-17T01:22:04.354Z,63.70
2023-02-17T01:25:07.721Z,63.60
2023-02-17T01:28:15.010Z,63.40
2023-02-17T01:31:19.969Z,63.50
2023-02-17T01:34:22.862Z,63.60
2023-02-17T01:37:25.588Z,63.20
2023-02-17T01:40:28.371Z,62.70
2023-02-17T01:43:31.280Z,63.40
2023-02-17T01:46:36.186Z,63.00
2023-02-17T01:49:41.415Z,62.60
2023-02-17T01:52:44.922Z,63.00
2023-02-17T01:55:48.637Z,62.90
2023-02-17T01:58:56.109Z,62.50
2023-02-17T02:02:03.115Z,62.40
2023-02-17T02:05:06.635Z,62.80
2023-02-17T02:08:10.626Z,62.10
2023-02-17T02:11:13.413Z,62.30
2023-02-17T02:14:16.443Z,62.20
2023-02-17T02:17:32.125Z,62.00
2023-02-17T02:21:08.530Z,62.50
2023-02-17T02:24:33.264Z,62.90
2023-02-17T02:27:51.586Z,63.10
2023-02-17T02:31:08.014Z,63.00
2023-02-17T02:34:17.798Z,63.50
2023-02-17T02:37:27.622Z,63.40
2023-02-17T02:40:37.515Z,63.40
2023-02-17T02:43:40.676Z,63.70
2023-02-17T02:46:43.422Z,63.40
2023-02-17T02:49:47.642Z,63.00
2023-02-17T02:53:03.908Z,63.40
2023-02-17T02:56:14.387Z,63.50
2023-02-17T02:59:31.602Z,63.70
2023-02-17T03:02:42.635Z,64.30
2023-02-17T03:05:56.715Z,64.40
2023-02-17T03:09:04.093Z,64.60
2023-02-17T03:12:07.581Z,65.00
2023-02-17T03:15:15.428Z,65.10
2023-02-17T03:18:18.673Z,64.90
2023-02-17T03:21:23.113Z,64.80
2023-02-17T03:24:25.977Z,64.80
2023-02-17T03:27:28.993Z,64.60
2023-02-17T03:30:31.868Z,64.70
2023-02-17T03:33:34.888Z,64.70
2023-02-17T03:36:39.113Z,64.20
2023-02-17T03:39:42.110Z,64.50
2023-02-17T03:42:44.853Z,64.40
2023-02-17T03:45:47.655Z,64.30
2023-02-17T03:48:52.142Z,64.00
2023-02-17T03:51:58.145Z,64.00
2023-02-17T03:55:01.015Z,64.00
2023-02-17T03:58:03.982Z,64.70
2023-02-17T04:01:07.268Z,64.30
2023-02-17T04:04:10.177Z,63.80
2023-02-17T04:07:14.658Z,63.90
2023-02-17T04:10:18.280Z,63.70
2023-02-17T04:13:21.390Z,63.00
2023-02-17T04:16:24.300Z,63.20
2023-02-17T04:19:27.172Z,62.90
2023-02-17T04:22:31.523Z,62.70
2023-02-17T04:25:35.325Z,63.00
2023-02-17T04:28:39.931Z,62.70
2023-02-17T04:31:42.880Z,62.40
2023-02-17T04:34:45.650Z,62.00
2023-02-17T04:37:49.749Z,61.90
2023-02-17T04:40:53.654Z,62.10
2023-02-17T04:43:56.390Z,62.10
2023-02-17T04:46:59.126Z,62.30
2023-02-17T04:50:01.892Z,62.30
2023-02-17T04:53:05.982Z,62.10
2023-02-17T04:56:08.820Z,61.60
2023-02-17T04:59:11.639Z,62.20
2023-02-17T05:02:14.391Z,62.60
2023-02-17T05:05:18.841Z,62.20
2023-02-17T05:08:23.045Z,62.30
2023-02-17T05:11:25.875Z,62.60
2023-02-17T05:14:28.799Z,62.40
2023-02-17T05:17:31.567Z,62.20
2023-02-17T05:20:34.370Z,62.20
2023-02-17T05:23:41.157Z,62.30
2023-02-17T05:26:44.010Z,62.50
2023-02-17T05:29:46.989Z,62.50
2023-02-17T05:32:49.834Z,63.10
2023-02-17T05:35:52.582Z,63.50
2023-02-17T05:38:56.679Z,63.30
2023-02-17T05:41:59.612Z,63.60
2023-02-17T05:45:02.385Z,63.80
2023-02-17T05:48:05.412Z,64.00
2023-02-17T05:51:08.769Z,64.10
2023-02-17T05:54:12.833Z,64.50
2023-02-17T05:57:15.574Z,64.00
2023-02-17T06:00:18.753Z,64.30
2023-02-17T06:03:21.498Z,64.20
2023-02-17T06:06:24.273Z,64.70
2023-02-17T06:09:28.918Z,65.20
2023-02-17T06:12:31.724Z,66.00
2023-02-17T06:15:34.760Z,66.60
2023-02-17T06:18:37.540Z,67.30
2023-02-17T06:21:40.633Z,67.80
2023-02-17T06:24:44.778Z,71.20
2023-02-17T06:27:47.536Z,73.80
2023-02-17T06:30:50.406Z,74.20
2023-02-17T06:33:53.196Z,76.50
2023-02-17T06:36:56.641Z,78.40
2023-02-17T06:40:00.722Z,77.90
2023-02-17T06:43:03.481Z,78.10
2023-02-17T06:46:06.740Z,76.80
2023-02-17T06:49:09.692Z,76.70
2023-02-17T06:52:12.478Z,76.30
2023-02-17T06:55:16.838Z,76.20
2023-02-17T06:58:19.606Z,75.60
2023-02-17T07:01:26.020Z,75.40
2023-02-17T07:04:28.770Z,75.30
2023-02-17T07:07:31.551Z,75.60
2023-02-17T07:10:35.887Z,76.70
2023-02-17T07:13:38.763Z,76.00
2023-02-17T07:16:41.995Z,75.60
2023-02-17T07:19:44.782Z,75.60
2023-02-17T07:22:47.563Z,76.30
2023-02-17T07:25:51.630Z,76.70
2023-02-17T07:28:54.374Z,77.60
2023-02-17T07:31:57.155Z,78.00
2023-02-17T07:34:59.900Z,78.90
2023-02-17T07:38:02.726Z,78.40
2023-02-17T07:41:08.310Z,78.80
2023-02-17T07:44:11.983Z,78.90
2023-02-17T07:47:14.925Z,78.60
2023-02-17T07:50:17.923Z,78.90
2023-02-17T07:53:20.735Z,79.00
2023-02-17T07:56:25.756Z,79.20
2023-02-17T07:59:28.506Z,78.40
2023-02-17T08:02:31.270Z,79.80
2023-02-17T08:05:34.010Z,80.00
2023-02-17T08:08:54.252Z,80.40
2023-02-17T08:12:15.286Z,81.90
2023-02-17T08:15:18.050Z,80.50
2023-02-17T08:18:21.032Z,80.30
2023-02-17T08:21:24.383Z,80.40
2023-02-17T08:24:27.236Z,81.00
2023-02-17T08:27:31.328Z,81.40
2023-02-17T08:30:36.850Z,82.00
2023-02-17T08:33:39.688Z,84.40
2023-02-17T08:36:42.475Z,84.80
2023-02-17T08:39:45.266Z,83.90
2023-02-17T08:42:49.323Z,82.40
2023-02-17T08:45:52.160Z,82.30
2023-02-17T08:48:56.267Z,82.00
2023-02-17T08:51:59.469Z,82.00
2023-02-17T08:55:02.608Z,80.90
2023-02-17T08:58:06.766Z,84.50
2023-02-17T09:01:09.983Z,84.70
2023-02-17T09:04:14.790Z,84.40
2023-02-17T09:07:17.627Z,84.70
2023-02-17T09:10:20.430Z,86.30
2023-02-17T09:13:24.532Z,86.20
2023-02-17T09:16:27.384Z,87.10
2023-02-17T09:19:30.320Z,87.60
2023-02-17T09:22:33.074Z,87.00
2023-02-17T09:25:35.823Z,87.10
2023-02-17T09:28:40.345Z,86.70
2023-02-17T09:31:43.952Z,86.50
2023-02-17T09:34:50.842Z,87.50
2023-02-17T09:37:53.961Z,86.30
2023-02-17T09:41:01.446Z,86.90
2023-02-17T09:44:07.069Z,86.40
2023-02-17T09:47:14.824Z,87.30
2023-02-17T09:50:23.476Z,86.50
2023-02-17T09:53:31.560Z,86.10
2023-02-17T09:56:37.850Z,86.20
2023-02-17T09:59:47.273Z,85.80
2023-02-17T10:02:56.469Z,85.80
2023-02-17T10:06:09.756Z,85.60
2023-02-17T10:09:16.472Z,85.40
2023-02-17T10:12:22.466Z,85.40
2023-02-17T10:15:31.462Z,84.60
2023-02-17T10:18:38.302Z,84.30
2023-02-17T10:21:45.225Z,84.20
2023-02-17T10:24:48.014Z,83.70
2023-02-17T10:27:57.195Z,83.40
2023-02-17T10:31:05.682Z,84.40
2023-02-17T10:34:16.708Z,82.40
2023-02-17T10:37:25.830Z,81.90
2023-02-17T10:40:30.446Z,80.10
2023-02-17T10:43:34.709Z,79.10
2023-02-17T10:46:41.288Z,78.80
2023-02-17T10:49:47.950Z,78.70
2023-02-17T10:52:52.016Z,78.60
2023-02-17T10:56:01.129Z,76.70
2023-02-17T10:59:08.890Z,76.40
2023-02-17T11:02:20.241Z,76.90
2023-02-17T11:05:25.711Z,75.80
2023-02-17T11:08:34.976Z,75.80
2023-02-17T11:11:37.863Z,74.80
2023-02-17T11:14:46.430Z,75.30
2023-02-17T11:17:51.726Z,75.60
2023-02-17T11:21:03.104Z,75.70
2023-02-17T11:24:07.569Z,75.60
2023-02-17T11:27:12.530Z,77.00
2023-02-17T11:30:19.496Z,75.80
2023-02-17T11:33:29.803Z,75.70
2023-02-17T11:36:33.143Z,75.80
2023-02-17T11:39:39.990Z,74.90
2023-02-17T11:42:42.846Z,74.80
2023-02-17T11:45:55.061Z,75.20
2023-02-17T11:49:08.606Z,75.80
2023-02-17T11:52:24.044Z,75.20
2023-02-17T11:55:36.441Z,75.90
2023-02-17T11:59:13.891Z,75.40
2023-02-17T12:02:21.556Z,75.80
2023-02-17T12:05:30.716Z,76.70
2023-02-17T12:08:47.449Z,76.50
2023-02-17T12:11:59.252Z,75.90
2023-02-17T12:15:20.092Z,74.60
2023-02-17T12:18:38.872Z,74.60
2023-02-17T12:22:00.693Z,74.70
2023-02-17T12:25:25.670Z,75.30
2023-02-17T12:28:46.364Z,75.50
2023-02-17T12:32:13.262Z,75.80
2023-02-17T12:35:20.632Z,76.30
2023-02-17T12:38:31.460Z,76.60
2023-02-17T12:41:38.478Z,76.80
2023-02-17T12:44:45.396Z,76.50
2023-02-17T12:47:55.201Z,76.70
2023-02-17T12:51:03.846Z,77.00
2023-02-17T12:54:13.610Z,77.90
2023-02-17T12:57:19.778Z,78.10
2023-02-17T13:00:26.244Z,76.90
2023-02-17T13:03:31.108Z,77.80
2023-02-17T13:06:38.341Z,77.90
2023-02-17T13:09:45.433Z,78.20
2023-02-17T13:12:59.687Z,78.90
2023-02-17T13:16:06.801Z,80.20
2023-02-17T13:19:10.223Z,80.40
2023-02-17T13:22:23.425Z,80.70
2023-02-17T13:25:32.927Z,81.30
2023-02-17T13:28:37.836Z,81.20
2023-02-17T13:31:50.374Z,81.30
2023-02-17T13:35:01.638Z,81.80
2023-02-17T13:38:05.308Z,82.10
2023-02-17T13:41:13.263Z,82.60
2023-02-17T13:44:31.837Z,82.50
2023-02-17T13:47:38.014Z,82.20
2023-02-17T13:50:46.490Z,82.30
2023-02-17T13:53:52.073Z,83.50
2023-02-17T13:56:56.575Z,82.00
2023-02-17T14:00:11.413Z,82.20
2023-02-17T14:03:21.346Z,82.30
2023-02-17T14:06:28.099Z,82.60
2023-02-17T14:09:34.119Z,82.60
2023-02-17T14:12:38.392Z,82.80
2023-02-17T14:15:51.828Z,83.10
2023-02-17T14:19:03.233Z,83.20
2023-02-17T14:22:07.079Z,83.70
2023-02-17T14:25:13.707Z,83.70
2023-02-17T14:28:23.035Z,83.60
2023-02-17T14:31:26.511Z,83.90
2023-02-17T14:34:31.558Z,83.70
2023-02-17T14:37:36.757Z,83.50
2023-02-17T14:40:40.302Z,84.20
2023-02-17T14:43:44.467Z,83.80
2023-02-17T14:46:47.318Z,83.90
2023-02-17T14:49:50.093Z,84.10
2023-02-17T14:52:53.314Z,83.70
2023-02-17T14:56:00.450Z,82.90
2023-02-17T14:59:04.798Z,83.40
2023-02-17T15:02:12.547Z,82.90
2023-02-17T15:05:15.467Z,82.60
2023-02-17T15:08:22.017Z,83.00
2023-02-17T15:11:29.815Z,83.10
2023-02-17T15:14:34.091Z,83.40
2023-02-17T15:17:36.800Z,83.70
2023-02-17T15:20:42.081Z,84.10
2023-02-17T15:23:44.827Z,83.90
2023-02-17T15:26:48.055Z,84.10
2023-02-17T15:29:52.163Z,83.60
2023-02-17T15:32:54.931Z,83.50
2023-02-17T15:35:58.033Z,82.80
2023-02-17T15:39:00.951Z,83.50
2023-02-17T15:42:08.003Z,83.60
2023-02-17T15:45:16.557Z,85.40
2023-02-17T15:48:24.680Z,86.50
2023-02-17T15:51:27.426Z,86.20
2023-02-17T15:54:30.168Z,85.90
2023-02-17T15:57:32.960Z,85.60
2023-02-17T16:00:37.488Z,85.90
2023-02-17T16:03:40.308Z,86.20
2023-02-17T16:06:43.625Z,86.70
2023-02-17T16:09:46.379Z,87.40
2023-02-17T16:12:50.533Z,88.10
2023-02-17T16:15:57.350Z,88.00
2023-02-17T16:19:00.811Z,88.40
2023-02-17T16:22:03.601Z,88.40
2023-02-17T16:25:06.955Z,88.50
2023-02-17T16:28:15.237Z,88.30
2023-02-17T16:31:19.639Z,88.20
2023-02-17T16:34:24.735Z,87.90
2023-02-17T16:37:27.522Z,87.80
2023-02-17T16:40:33.318Z,87.80
2023-02-17T16:43:36.071Z,88.00
2023-02-17T16:46:40.893Z,88.40
2023-02-17T16:49:48.263Z,88.80
2023-02-17T16:52:51.943Z,88.60
2023-02-17T16:55:56.081Z,88.70
2023-02-17T16:58:58.847Z,89.00
2023-02-17T17:02:03.072Z,88.90
2023-02-17T17:05:06.078Z,88.60
2023-02-17T17:08:11.182Z,89.10
2023-02-17T17:11:16.320Z,89.50
2023-02-17T17:14:21.511Z,89.60
2023-02-17T17:17:25.943Z,89.10
2023-02-17T17:20:34.021Z,88.90
2023-02-17T17:23:36.790Z,89.10
2023-02-17T17:26:43.798Z,89.00
2023-02-17T17:29:46.571Z,89.00
2023-02-17T17:32:50.761Z,89.10
2023-02-17T17:35:54.371Z,89.20
2023-02-17T17:38:58.588Z,89.10
2023-02-17T17:42:01.329Z,89.40
2023-02-17T17:45:04.115Z,89.70
2023-02-17T17:48:08.221Z,89.50
2023-02-17T17:51:13.191Z,89.50
2023-02-17T17:54:15.947Z,89.50
2023-02-17T17:57:18.789Z,89.40
2023-02-17T18:00:21.972Z,89.40
2023-02-17T18:03:26.018Z,89.50
2023-02-17T18:06:31.992Z,89.60
2023-02-17T18:09:38.432Z,89.80
2023-02-17T18:12:43.466Z,90.20
2023-02-17T18:15:47.240Z,90.00
2023-02-17T18:18:52.294Z,90.10
2023-02-17T18:21:55.134Z,90.10
2023-02-17T18:24:57.884Z,90.00
2023-02-17T18:28:00.769Z,90.10
2023-02-17T18:31:07.870Z,90.60
2023-02-17T18:34:12.291Z,90.50
2023-02-17T18:37:15.917Z,90.50
2023-02-17T18:40:22.681Z,90.50
2023-02-17T18:43:25.452Z,90.50
2023-02-17T18:46:29.029Z,91.10
2023-02-17T18:49:33.138Z,90.80
2023-02-17T18:52:37.769Z,90.70
2023-02-17T18:55:40.547Z,90.90
2023-02-17T18:58:43.429Z,91.00
2023-02-17T19:01:46.295Z,91.00
2023-02-17T19:04:53.703Z,91.00
2023-02-17T19:07:56.823Z,91.20
2023-02-17T19:10:59.549Z,91.20
2023-02-17T19:14:03.382Z,91.40
2023-02-17T19:17:06.170Z,91.50
2023-02-17T19:20:11.701Z,91.20
2023-02-17T19:23:14.424Z,91.40
2023-02-17T19:26:18.868Z,91.40
2023-02-17T19:29:22.948Z,91.50
2023-02-17T19:32:25.822Z,91.60
2023-02-17T19:35:29.897Z,91.60
2023-02-17T19:38:32.828Z,91.50
2023-02-17T19:41:36.156Z,91.40
2023-02-17T19:44:38.973Z,91.50
2023-02-17T19:47:41.708Z,91.80
2023-02-17T19:50:45.818Z,91.80
2023-02-17T19:53:49.047Z,91.80
2023-02-17T19:56:52.327Z,91.90
2023-02-17T19:59:55.233Z,92.10
2023-02-17T20:02:58.027Z,92.20
2023-02-17T20:06:06.848Z,92.20
2023-02-17T20:09:12.767Z,92.20
2023-02-17T20:12:15.533Z,92.10
2023-02-17T20:15:18.464Z,92.10
2023-02-17T20:18:21.197Z,92.00
2023-02-17T20:21:28.045Z,92.00
2023-02-17T20:24:30.830Z,92.20
2023-02-17T20:27:33.984Z,92.20
2023-02-17T20:30:36.825Z,92.00
2023-02-17T20:33:39.654Z,92.20
2023-02-17T20:36:43.737Z,92.20
2023-02-17T20:39:46.481Z,92.20
2023-02-17T20:42:49.319Z,92.40
2023-02-17T20:45:53.059Z,92.20
2023-02-17T20:48:56.276Z,92.10
2023-02-17T20:52:00.413Z,92.20
2023-02-17T20:55:03.215Z,92.20
2023-02-17T20:58:06.510Z,92.60
2023-02-17T21:01:09.750Z,92.20
2023-02-17T21:04:14.063Z,92.60
2023-02-17T21:07:18.372Z,92.40
2023-02-17T21:10:23.575Z,92.10
2023-02-17T21:13:27.290Z,92.10
2023-02-17T21:16:32.355Z,91.80
2023-02-17T21:19:35.143Z,91.80
2023-02-17T21:22:39.456Z,91.80
2023-02-17T21:25:42.192Z,91.90
2023-02-17T21:28:45.394Z,92.10
2023-02-17T21:31:48.278Z,92.20
2023-02-17T21:34:51.159Z,92.30
2023-02-17T21:37:55.679Z,92.50
2023-02-17T21:41:06.592Z,92.70
2023-02-17T21:44:29.545Z,92.80
2023-02-17T21:47:33.142Z,92.80
2023-02-17T21:50:35.901Z,92.90
2023-02-17T21:53:40.097Z,92.90
2023-02-17T21:56:42.835Z,93.20
2023-02-17T21:59:45.598Z,93.60
2023-02-17T22:02:48.377Z,93.10
2023-02-17T22:05:51.500Z,93.00
2023-02-17T22:08:56.862Z,93.20
2023-02-17T22:11:59.634Z,93.50
2023-02-17T22:15:02.545Z,93.70
2023-02-17T22:18:05.440Z,93.80
2023-02-17T22:21:10.296Z,94.20
2023-02-17T22:24:15.095Z,93.90
2023-02-17T22:27:17.854Z,93.90
2023-02-17T22:30:21.081Z,93.80
2023-02-17T22:33:23.846Z,94.00
2023-02-17T22:36:27.508Z,94.20
2023-02-17T22:39:31.633Z,94.20
2023-02-17T22:42:34.411Z,94.00
2023-02-17T22:45:37.201Z,94.50
2023-02-17T22:48:40.353Z,94.30
2023-02-17T22:51:43.160Z,94.20
2023-02-17T22:54:47.312Z,94.20
2023-02-17T22:57:51.804Z,94.20
2023-02-17T23:01:04.276Z,94.40
2023-02-17T23:04:08.027Z,94.40
2023-02-17T23:07:11.033Z,94.40
2023-02-17T23:10:15.211Z,94.40
2023-02-17T23:13:18.982Z,94.30
2023-02-17T23:16:21.781Z,94.30
2023-02-17T23:19:25.289Z,94.30
2023-02-17T23:22:28.062Z,94.40
2023-02-17T23:25:32.155Z,94.60
2023-02-17T23:28:35.365Z,94.70
2023-02-17T23:31:38.809Z,94.70
2023-02-17T23:34:41.599Z,94.80
2023-02-17T23:37:44.372Z,94.70
2023-02-17T23:40:50.898Z,94.70
2023-02-17T23:43:54.170Z,94.80
2023-02-17T23:46:57.057Z,95.20
2023-02-17T23:49:59.818Z,95.40
2023-02-17T23:53:02.582Z,95.50
2023-02-17T23:56:09.682Z,95.80
2023-02-17T23:59:13.265Z,95.80
